Anloo, Netherlands
Current Conditions -  °F | °C
As of 3:25 AM on Thursday 18 Dec 2014 (Local Time) from EHGG Reporting Station
Haze Haze  
Wind Chill: 50°   Ceiling: 600
Heat Index: 50°   Visibility: 2.5mi
Dew Point: 48°   Wind: 10mph
Humidity: 94%   Direction: 230°SW
Pressure: 29.71"   Gusts: NA
Location:  53.04°N, 6.7°E
Report Text: EHGG 180225Z AUTO 23009KT 4000 BR SCT004 OVC006 10/09 Q1006
Loading
Personal Weather Stations






























Interactive Weather Map New forecast layout! Learn more

10-Day Weather Forecast

Advertisements
Track Severe Weather on mobile